sensor_id;sensor_type;location;lat;lon;timestamp;pressure;altitude;pressure_sealevel;temperature
35582;BMP180;21687;48.900;9.188;2023-05-29T00:01:22;98512.00;;;12.00
35582;BMP180;21687;48.900;9.188;2023-05-29T00:03:51;98506.00;;;11.90
35582;BMP180;21687;48.900;9.188;2023-05-29T00:06:20;98505.00;;;11.90
35582;BMP180;21687;48.900;9.188;2023-05-29T00:08:47;98516.00;;;11.80
35582;BMP180;21687;48.900;9.188;2023-05-29T00:11:13;98514.00;;;11.90
35582;BMP180;21687;48.900;9.188;2023-05-29T00:13:40;98513.00;;;11.90
35582;BMP180;21687;48.900;9.188;2023-05-29T00:16:07;98519.00;;;11.90
35582;BMP180;21687;48.900;9.188;2023-05-29T00:18:36;98511.00;;;11.80
35582;BMP180;21687;48.900;9.188;2023-05-29T00:21:02;98505.00;;;11.80
35582;BMP180;21687;48.900;9.188;2023-05-29T00:23:29;98505.00;;;11.90
35582;BMP180;21687;48.900;9.188;2023-05-29T00:25:55;98509.00;;;11.80
35582;BMP180;21687;48.900;9.188;2023-05-29T00:28:21;98499.00;;;11.80
35582;BMP180;21687;48.900;9.188;2023-05-29T00:30:48;98508.00;;;11.70
35582;BMP180;21687;48.900;9.188;2023-05-29T00:33:14;98505.00;;;11.70
35582;BMP180;21687;48.900;9.188;2023-05-29T00:35:40;98501.00;;;11.60
35582;BMP180;21687;48.900;9.188;2023-05-29T00:38:07;98505.00;;;11.50
35582;BMP180;21687;48.900;9.188;2023-05-29T00:40:33;98504.00;;;11.50
35582;BMP180;21687;48.900;9.188;2023-05-29T00:42:59;98500.00;;;11.30
35582;BMP180;21687;48.900;9.188;2023-05-29T00:45:26;98500.00;;;11.20
35582;BMP180;21687;48.900;9.188;2023-05-29T00:47:55;98492.00;;;11.20
35582;BMP180;21687;48.900;9.188;2023-05-29T00:50:22;98491.00;;;11.10
35582;BMP180;21687;48.900;9.188;2023-05-29T00:52:50;98495.00;;;11.20
35582;BMP180;21687;48.900;9.188;2023-05-29T00:55:17;98494.00;;;11.20
35582;BMP180;21687;48.900;9.188;2023-05-29T00:57:43;98490.00;;;11.10
35582;BMP180;21687;48.900;9.188;2023-05-29T01:00:12;98484.00;;;11.10
35582;BMP180;21687;48.900;9.188;2023-05-29T01:02:41;98477.00;;;11.00
35582;BMP180;21687;48.900;9.188;2023-05-29T01:05:11;98487.00;;;10.90
35582;BMP180;21687;48.900;9.188;2023-05-29T01:07:38;98482.00;;;10.90
35582;BMP180;21687;48.900;9.188;2023-05-29T01:10:05;98477.00;;;10.90
35582;BMP180;21687;48.900;9.188;2023-05-29T01:12:57;98477.00;;;11.00
35582;BMP180;21687;48.900;9.188;2023-05-29T01:19:00;98482.00;;;10.90
35582;BMP180;21687;48.900;9.188;2023-05-29T01:27:17;98478.00;;;10.70
35582;BMP180;21687;48.900;9.188;2023-05-29T01:29:44;98477.00;;;10.60
35582;BMP180;21687;48.900;9.188;2023-05-29T01:35:35;98478.00;;;10.50
35582;BMP180;21687;48.900;9.188;2023-05-29T01:38:01;98486.00;;;10.40
35582;BMP180;21687;48.900;9.188;2023-05-29T01:40:28;98476.00;;;10.40
35582;BMP180;21687;48.900;9.188;2023-05-29T01:42:55;98477.00;;;10.30
35582;BMP180;21687;48.900;9.188;2023-05-29T01:45:21;98477.00;;;10.30
35582;BMP180;21687;48.900;9.188;2023-05-29T01:47:48;98480.00;;;10.20
35582;BMP180;21687;48.900;9.188;2023-05-29T01:50:18;98478.00;;;10.20
35582;BMP180;21687;48.900;9.188;2023-05-29T01:52:45;98487.00;;;10.20
35582;BMP180;21687;48.900;9.188;2023-05-29T01:55:11;98483.00;;;10.20
35582;BMP180;21687;48.900;9.188;2023-05-29T01:57:38;98492.00;;;10.10
35582;BMP180;21687;48.900;9.188;2023-05-29T02:00:05;98480.00;;;10.10
35582;BMP180;21687;48.900;9.188;2023-05-29T02:02:41;98492.00;;;10.10
35582;BMP180;21687;48.900;9.188;2023-05-29T02:05:10;98488.00;;;10.10
35582;BMP180;21687;48.900;9.188;2023-05-29T02:07:37;98485.00;;;10.00
35582;BMP180;21687;48.900;9.188;2023-05-29T02:10:07;98479.00;;;9.90
35582;BMP180;21687;48.900;9.188;2023-05-29T02:12:34;98479.00;;;9.90
35582;BMP180;21687;48.900;9.188;2023-05-29T02:15:00;98485.00;;;9.90
35582;BMP180;21687;48.900;9.188;2023-05-29T02:17:26;98482.00;;;9.90
35582;BMP180;21687;48.900;9.188;2023-05-29T02:19:53;98478.00;;;9.80
35582;BMP180;21687;48.900;9.188;2023-05-29T02:22:19;98477.00;;;9.70
35582;BMP180;21687;48.900;9.188;2023-05-29T02:24:45;98475.00;;;9.70
35582;BMP180;21687;48.900;9.188;2023-05-29T02:27:11;98470.00;;;9.70
35582;BMP180;21687;48.900;9.188;2023-05-29T02:29:38;98468.00;;;9.70
35582;BMP180;21687;48.900;9.188;2023-05-29T02:32:05;98475.00;;;9.60
35582;BMP180;21687;48.900;9.188;2023-05-29T02:34:31;98479.00;;;9.70
35582;BMP180;21687;48.900;9.188;2023-05-29T02:36:57;98475.00;;;9.60
35582;BMP180;21687;48.900;9.188;2023-05-29T02:39:23;98474.00;;;9.60
35582;BMP180;21687;48.900;9.188;2023-05-29T02:41:50;98468.00;;;9.60
35582;BMP180;21687;48.900;9.188;2023-05-29T02:44:16;98473.00;;;9.60
35582;BMP180;21687;48.900;9.188;2023-05-29T02:46:42;98466.00;;;9.60
35582;BMP180;21687;48.900;9.188;2023-05-29T02:49:09;98467.00;;;9.60
35582;BMP180;21687;48.900;9.188;2023-05-29T02:51:35;98460.00;;;9.50
35582;BMP180;21687;48.900;9.188;2023-05-29T02:54:01;98467.00;;;9.50
35582;BMP180;21687;48.900;9.188;2023-05-29T02:56:28;98465.00;;;9.40
35582;BMP180;21687;48.900;9.188;2023-05-29T02:58:54;98466.00;;;9.40
35582;BMP180;21687;48.900;9.188;2023-05-29T03:01:20;98461.00;;;9.30
35582;BMP180;21687;48.900;9.188;2023-05-29T03:03:47;98468.00;;;9.30
35582;BMP180;21687;48.900;9.188;2023-05-29T03:06:13;98468.00;;;9.30
35582;BMP180;21687;48.900;9.188;2023-05-29T03:08:39;98470.00;;;9.30
35582;BMP180;21687;48.900;9.188;2023-05-29T03:11:14;98470.00;;;9.30
35582;BMP180;21687;48.900;9.188;2023-05-29T03:13:41;98465.00;;;9.30
35582;BMP180;21687;48.900;9.188;2023-05-29T03:16:08;98467.00;;;9.20
35582;BMP180;21687;48.900;9.188;2023-05-29T03:18:34;98468.00;;;9.20
35582;BMP180;21687;48.900;9.188;2023-05-29T03:21:01;98469.00;;;9.20
35582;BMP180;21687;48.900;9.188;2023-05-29T03:23:27;98466.00;;;9.20
35582;BMP180;21687;48.900;9.188;2023-05-29T03:25:54;98470.00;;;9.20
35582;BMP180;21687;48.900;9.188;2023-05-29T03:28:20;98462.00;;;9.20
35582;BMP180;21687;48.900;9.188;2023-05-29T03:30:46;98476.00;;;9.20
35582;BMP180;21687;48.900;9.188;2023-05-29T03:33:13;98457.00;;;9.20
35582;BMP180;21687;48.900;9.188;2023-05-29T03:35:39;98463.00;;;9.10
35582;BMP180;21687;48.900;9.188;2023-05-29T03:38:05;98469.00;;;9.10
35582;BMP180;21687;48.900;9.188;2023-05-29T03:40:32;98455.00;;;9.10
35582;BMP180;21687;48.900;9.188;2023-05-29T03:42:58;98461.00;;;9.20
35582;BMP180;21687;48.900;9.188;2023-05-29T03:45:24;98468.00;;;9.20
35582;BMP180;21687;48.900;9.188;2023-05-29T03:47:50;98473.00;;;9.30
35582;BMP180;21687;48.900;9.188;2023-05-29T03:50:16;98474.00;;;9.40
35582;BMP180;21687;48.900;9.188;2023-05-29T03:52:43;98471.00;;;9.50
35582;BMP180;21687;48.900;9.188;2023-05-29T03:55:10;98478.00;;;9.60
35582;BMP180;21687;48.900;9.188;2023-05-29T03:57:41;98483.00;;;9.70
35582;BMP180;21687;48.900;9.188;2023-05-29T04:00:11;98481.00;;;9.90
35582;BMP180;21687;48.900;9.188;2023-05-29T04:02:41;98483.00;;;10.30
35582;BMP180;21687;48.900;9.188;2023-05-29T04:05:08;98487.00;;;10.60
35582;BMP180;21687;48.900;9.188;2023-05-29T04:07:36;98488.00;;;11.00
35582;BMP180;21687;48.900;9.188;2023-05-29T04:10:05;98487.00;;;11.40
35582;BMP180;21687;48.900;9.188;2023-05-29T04:12:33;98491.00;;;11.80
35582;BMP180;21687;48.900;9.188;2023-05-29T04:14:59;98491.00;;;12.20
35582;BMP180;21687;48.900;9.188;2023-05-29T04:17:26;98493.00;;;12.60
35582;BMP180;21687;48.900;9.188;2023-05-29T04:19:52;98500.00;;;12.90
35582;BMP180;21687;48.900;9.188;2023-05-29T04:22:18;98506.00;;;13.30
35582;BMP180;21687;48.900;9.188;2023-05-29T04:24:46;98509.00;;;13.60
35582;BMP180;21687;48.900;9.188;2023-05-29T04:27:12;98514.00;;;13.90
35582;BMP180;21687;48.900;9.188;2023-05-29T04:29:43;98505.00;;;14.20
35582;BMP180;21687;48.900;9.188;2023-05-29T04:32:09;98516.00;;;14.50
35582;BMP180;21687;48.900;9.188;2023-05-29T04:34:37;98515.00;;;14.80
35582;BMP180;21687;48.900;9.188;2023-05-29T04:37:06;98523.00;;;15.10
35582;BMP180;21687;48.900;9.188;2023-05-29T04:39:33;98530.00;;;15.30
35582;BMP180;21687;48.900;9.188;2023-05-29T04:41:59;98524.00;;;15.60
35582;BMP180;21687;48.900;9.188;2023-05-29T04:44:26;98527.00;;;15.80
35582;BMP180;21687;48.900;9.188;2023-05-29T04:46:55;98527.00;;;16.00
35582;BMP180;21687;48.900;9.188;2023-05-29T04:49:23;98529.00;;;16.30
35582;BMP180;21687;48.900;9.188;2023-05-29T04:51:50;98535.00;;;16.40
35582;BMP180;21687;48.900;9.188;2023-05-29T04:54:19;98542.00;;;16.90
35582;BMP180;21687;48.900;9.188;2023-05-29T04:56:46;98534.00;;;16.90
35582;BMP180;21687;48.900;9.188;2023-05-29T04:59:12;98531.00;;;17.00
35582;BMP180;21687;48.900;9.188;2023-05-29T05:01:39;98528.00;;;17.20
35582;BMP180;21687;48.900;9.188;2023-05-29T05:04:05;98543.00;;;17.40
35582;BMP180;21687;48.900;9.188;2023-05-29T05:06:32;98539.00;;;17.60
35582;BMP180;21687;48.900;9.188;2023-05-29T05:08:58;98550.00;;;17.70
35582;BMP180;21687;48.900;9.188;2023-05-29T05:11:24;98552.00;;;17.80
35582;BMP180;21687;48.900;9.188;2023-05-29T05:13:51;98560.00;;;17.70
35582;BMP180;21687;48.900;9.188;2023-05-29T05:16:17;98560.00;;;18.00
35582;BMP180;21687;48.900;9.188;2023-05-29T05:18:44;98551.00;;;18.30
35582;BMP180;21687;48.900;9.188;2023-05-29T05:21:11;98558.00;;;18.40
35582;BMP180;21687;48.900;9.188;2023-05-29T05:23:37;98550.00;;;18.80
35582;BMP180;21687;48.900;9.188;2023-05-29T05:26:03;98554.00;;;18.90
35582;BMP180;21687;48.900;9.188;2023-05-29T05:28:30;98561.00;;;18.90
35582;BMP180;21687;48.900;9.188;2023-05-29T05:30:56;98558.00;;;19.00
35582;BMP180;21687;48.900;9.188;2023-05-29T05:33:23;98560.00;;;18.90
35582;BMP180;21687;48.900;9.188;2023-05-29T05:35:49;98565.00;;;18.00
35582;BMP180;21687;48.900;9.188;2023-05-29T05:38:15;98573.00;;;17.30
35582;BMP180;21687;48.900;9.188;2023-05-29T05:40:42;98571.00;;;16.40
35582;BMP180;21687;48.900;9.188;2023-05-29T05:43:11;98582.00;;;16.30
35582;BMP180;21687;48.900;9.188;2023-05-29T05:45:37;98585.00;;;16.60
35582;BMP180;21687;48.900;9.188;2023-05-29T05:48:08;98593.00;;;16.60
35582;BMP180;21687;48.900;9.188;2023-05-29T05:50:35;98596.00;;;17.30
35582;BMP180;21687;48.900;9.188;2023-05-29T05:53:01;98591.00;;;17.30
35582;BMP180;21687;48.900;9.188;2023-05-29T05:55:27;98604.00;;;17.50
35582;BMP180;21687;48.900;9.188;2023-05-29T05:57:54;98599.00;;;17.70
35582;BMP180;21687;48.900;9.188;2023-05-29T06:00:23;98609.00;;;17.50
35582;BMP180;21687;48.900;9.188;2023-05-29T06:02:50;98598.00;;;17.80
35582;BMP180;21687;48.900;9.188;2023-05-29T06:05:16;98604.00;;;18.10
35582;BMP180;21687;48.900;9.188;2023-05-29T06:07:42;98600.00;;;18.00
35582;BMP180;21687;48.900;9.188;2023-05-29T06:10:09;98601.00;;;17.60
35582;BMP180;21687;48.900;9.188;2023-05-29T06:12:35;98612.00;;;18.00
35582;BMP180;21687;48.900;9.188;2023-05-29T06:15:02;98613.00;;;17.80
35582;BMP180;21687;48.900;9.188;2023-05-29T06:17:30;98616.00;;;18.30
35582;BMP180;21687;48.900;9.188;2023-05-29T06:19:56;98619.00;;;18.20
35582;BMP180;21687;48.900;9.188;2023-05-29T06:22:22;98618.00;;;18.50
35582;BMP180;21687;48.900;9.188;2023-05-29T06:24:48;98621.00;;;18.60
35582;BMP180;21687;48.900;9.188;2023-05-29T06:27:15;98623.00;;;18.80
35582;BMP180;21687;48.900;9.188;2023-05-29T06:29:41;98625.00;;;19.00
35582;BMP180;21687;48.900;9.188;2023-05-29T06:32:07;98622.00;;;19.20
35582;BMP180;21687;48.900;9.188;2023-05-29T06:34:34;98626.00;;;19.60
35582;BMP180;21687;48.900;9.188;2023-05-29T06:37:00;98628.00;;;19.80
35582;BMP180;21687;48.900;9.188;2023-05-29T06:39:26;98634.00;;;19.40
35582;BMP180;21687;48.900;9.188;2023-05-29T06:41:53;98647.00;;;19.50
35582;BMP180;21687;48.900;9.188;2023-05-29T06:44:19;98645.00;;;19.40
35582;BMP180;21687;48.900;9.188;2023-05-29T06:46:45;98648.00;;;19.10
35582;BMP180;21687;48.900;9.188;2023-05-29T06:49:11;98653.00;;;18.80
35582;BMP180;21687;48.900;9.188;2023-05-29T06:51:38;98653.00;;;19.10
35582;BMP180;21687;48.900;9.188;2023-05-29T06:54:04;98648.00;;;18.60
35582;BMP180;21687;48.900;9.188;2023-05-29T06:56:30;98652.00;;;19.50
35582;BMP180;21687;48.900;9.188;2023-05-29T06:58:56;98660.00;;;19.60
35582;BMP180;21687;48.900;9.188;2023-05-29T07:01:23;98656.00;;;20.00
35582;BMP180;21687;48.900;9.188;2023-05-29T07:03:53;98648.00;;;20.20
35582;BMP180;21687;48.900;9.188;2023-05-29T07:06:19;98654.00;;;20.70
35582;BMP180;21687;48.900;9.188;2023-05-29T07:08:46;98653.00;;;20.70
35582;BMP180;21687;48.900;9.188;2023-05-29T07:11:12;98646.00;;;20.60
35582;BMP180;21687;48.900;9.188;2023-05-29T07:13:38;98645.00;;;21.20
35582;BMP180;21687;48.900;9.188;2023-05-29T07:16:05;98652.00;;;21.70
35582;BMP180;21687;48.900;9.188;2023-05-29T07:18:31;98655.00;;;21.30
35582;BMP180;21687;48.900;9.188;2023-05-29T07:20:59;98657.00;;;21.80
35582;BMP180;21687;48.900;9.188;2023-05-29T07:23:25;98664.00;;;22.10
35582;BMP180;21687;48.900;9.188;2023-05-29T07:25:52;98654.00;;;21.40
35582;BMP180;21687;48.900;9.188;2023-05-29T07:28:18;98658.00;;;21.50
35582;BMP180;21687;48.900;9.188;2023-05-29T07:30:44;98662.00;;;21.20
35582;BMP180;21687;48.900;9.188;2023-05-29T07:33:11;98669.00;;;21.40
35582;BMP180;21687;48.900;9.188;2023-05-29T07:35:37;98664.00;;;21.80
35582;BMP180;21687;48.900;9.188;2023-05-29T07:38:03;98664.00;;;22.40
35582;BMP180;21687;48.900;9.188;2023-05-29T07:40:29;98667.00;;;22.40
35582;BMP180;21687;48.900;9.188;2023-05-29T07:42:56;98667.00;;;22.40
35582;BMP180;21687;48.900;9.188;2023-05-29T07:45:22;98666.00;;;22.40
35582;BMP180;21687;48.900;9.188;2023-05-29T07:47:48;98665.00;;;22.50
35582;BMP180;21687;48.900;9.188;2023-05-29T07:50:15;98662.00;;;21.90
35582;BMP180;21687;48.900;9.188;2023-05-29T07:52:43;98659.00;;;21.90
35582;BMP180;21687;48.900;9.188;2023-05-29T07:55:10;98659.00;;;21.80
35582;BMP180;21687;48.900;9.188;2023-05-29T07:57:36;98658.00;;;21.80
35582;BMP180;21687;48.900;9.188;2023-05-29T08:00:03;98661.00;;;22.00
35582;BMP180;21687;48.900;9.188;2023-05-29T08:02:35;98661.00;;;21.60
35582;BMP180;21687;48.900;9.188;2023-05-29T08:05:03;98657.00;;;22.30
35582;BMP180;21687;48.900;9.188;2023-05-29T08:07:30;98669.00;;;22.10
35582;BMP180;21687;48.900;9.188;2023-05-29T08:09:56;98663.00;;;22.20
35582;BMP180;21687;48.900;9.188;2023-05-29T08:12:22;98665.00;;;22.40
35582;BMP180;21687;48.900;9.188;2023-05-29T08:14:49;98663.00;;;22.10
35582;BMP180;21687;48.900;9.188;2023-05-29T08:17:15;98671.00;;;21.70
35582;BMP180;21687;48.900;9.188;2023-05-29T08:19:41;98674.00;;;22.20
35582;BMP180;21687;48.900;9.188;2023-05-29T08:22:11;98673.00;;;22.30
35582;BMP180;21687;48.900;9.188;2023-05-29T08:24:38;98662.00;;;22.30
35582;BMP180;21687;48.900;9.188;2023-05-29T08:27:04;98669.00;;;22.60
35582;BMP180;21687;48.900;9.188;2023-05-29T08:29:30;98677.00;;;22.50
35582;BMP180;21687;48.900;9.188;2023-05-29T08:31:57;98666.00;;;22.60
35582;BMP180;21687;48.900;9.188;2023-05-29T08:34:23;98665.00;;;22.90
35582;BMP180;21687;48.900;9.188;2023-05-29T08:36:49;98667.00;;;23.10
35582;BMP180;21687;48.900;9.188;2023-05-29T08:39:17;98673.00;;;23.40
35582;BMP180;21687;48.900;9.188;2023-05-29T08:42:06;98675.00;;;23.40
35582;BMP180;21687;48.900;9.188;2023-05-29T08:44:33;98671.00;;;23.20
35582;BMP180;21687;48.900;9.188;2023-05-29T08:47:02;98665.00;;;23.40
35582;BMP180;21687;48.900;9.188;2023-05-29T08:49:41;98672.00;;;23.40
35582;BMP180;21687;48.900;9.188;2023-05-29T08:52:18;98665.00;;;23.50
35582;BMP180;21687;48.900;9.188;2023-05-29T08:54:45;98672.00;;;23.50
35582;BMP180;21687;48.900;9.188;2023-05-29T08:57:12;98671.00;;;23.90
35582;BMP180;21687;48.900;9.188;2023-05-29T08:59:43;98667.00;;;24.00
35582;BMP180;21687;48.900;9.188;2023-05-29T09:02:11;98676.00;;;23.80
35582;BMP180;21687;48.900;9.188;2023-05-29T09:04:38;98663.00;;;23.80
35582;BMP180;21687;48.900;9.188;2023-05-29T09:07:07;98666.00;;;23.90
35582;BMP180;21687;48.900;9.188;2023-05-29T09:09:35;98669.00;;;24.40
35582;BMP180;21687;48.900;9.188;2023-05-29T09:12:03;98673.00;;;24.20
35582;BMP180;21687;48.900;9.188;2023-05-29T09:14:40;98671.00;;;24.80
35582;BMP180;21687;48.900;9.188;2023-05-29T09:17:08;98672.00;;;25.00
35582;BMP180;21687;48.900;9.188;2023-05-29T09:19:35;98668.00;;;25.10
35582;BMP180;21687;48.900;9.188;2023-05-29T09:22:15;98663.00;;;25.40
35582;BMP180;21687;48.900;9.188;2023-05-29T09:24:43;98669.00;;;25.50
35582;BMP180;21687;48.900;9.188;2023-05-29T09:27:11;98668.00;;;25.70
35582;BMP180;21687;48.900;9.188;2023-05-29T09:29:39;98663.00;;;25.80
35582;BMP180;21687;48.900;9.188;2023-05-29T09:32:10;98672.00;;;25.40
35582;BMP180;21687;48.900;9.188;2023-05-29T09:34:37;98667.00;;;25.20
35582;BMP180;21687;48.900;9.188;2023-05-29T09:37:05;98683.00;;;25.00
35582;BMP180;21687;48.900;9.188;2023-05-29T09:39:44;98676.00;;;25.50
35582;BMP180;21687;48.900;9.188;2023-05-29T09:42:10;98663.00;;;25.90
35582;BMP180;21687;48.900;9.188;2023-05-29T09:44:37;98677.00;;;25.60
35582;BMP180;21687;48.900;9.188;2023-05-29T09:47:03;98672.00;;;25.40
35582;BMP180;21687;48.900;9.188;2023-05-29T09:49:32;98674.00;;;25.10
35582;BMP180;21687;48.900;9.188;2023-05-29T09:51:58;98678.00;;;25.10
35582;BMP180;21687;48.900;9.188;2023-05-29T09:54:27;98666.00;;;25.10
35582;BMP180;21687;48.900;9.188;2023-05-29T09:56:58;98678.00;;;24.70
35582;BMP180;21687;48.900;9.188;2023-05-29T09:59:27;98667.00;;;24.80
35582;BMP180;21687;48.900;9.188;2023-05-29T10:02:02;98671.00;;;24.90
35582;BMP180;21687;48.900;9.188;2023-05-29T10:04:33;98660.00;;;25.00
35582;BMP180;21687;48.900;9.188;2023-05-29T10:07:09;98658.00;;;25.10
35582;BMP180;21687;48.900;9.188;2023-05-29T10:09:42;98656.00;;;25.10
35582;BMP180;21687;48.900;9.188;2023-05-29T10:12:11;98653.00;;;25.40
35582;BMP180;21687;48.900;9.188;2023-05-29T10:14:39;98664.00;;;25.40
35582;BMP180;21687;48.900;9.188;2023-05-29T10:17:09;98648.00;;;25.40
35582;BMP180;21687;48.900;9.188;2023-05-29T10:19:39;98649.00;;;24.90
35582;BMP180;21687;48.900;9.188;2023-05-29T10:22:06;98652.00;;;24.60
35582;BMP180;21687;48.900;9.188;2023-05-29T10:24:33;98656.00;;;24.70
35582;BMP180;21687;48.900;9.188;2023-05-29T10:27:03;98647.00;;;24.80
35582;BMP180;21687;48.900;9.188;2023-05-29T10:29:50;98654.00;;;25.10
35582;BMP180;21687;48.900;9.188;2023-05-29T10:38:13;98653.00;;;26.20
35582;BMP180;21687;48.900;9.188;2023-05-29T10:40:42;98646.00;;;26.20
35582;BMP180;21687;48.900;9.188;2023-05-29T10:43:08;98642.00;;;26.40
35582;BMP180;21687;48.900;9.188;2023-05-29T10:45:47;98651.00;;;26.20
35582;BMP180;21687;48.900;9.188;2023-05-29T10:50:47;98652.00;;;25.40
35582;BMP180;21687;48.900;9.188;2023-05-29T10:53:18;98654.00;;;25.60
35582;BMP180;21687;48.900;9.188;2023-05-29T10:55:48;98652.00;;;25.50
35582;BMP180;21687;48.900;9.188;2023-05-29T10:58:20;98642.00;;;25.20
35582;BMP180;21687;48.900;9.188;2023-05-29T11:00:47;98647.00;;;25.40
35582;BMP180;21687;48.900;9.188;2023-05-29T11:03:21;98649.00;;;25.50
35582;BMP180;21687;48.900;9.188;2023-05-29T11:06:04;98642.00;;;25.50
35582;BMP180;21687;48.900;9.188;2023-05-29T11:11:15;98636.00;;;25.70
35582;BMP180;21687;48.900;9.188;2023-05-29T11:14:01;98640.00;;;25.90
35582;BMP180;21687;48.900;9.188;2023-05-29T11:19:07;98644.00;;;26.00
35582;BMP180;21687;48.900;9.188;2023-05-29T11:24:05;98650.00;;;26.10
35582;BMP180;21687;48.900;9.188;2023-05-29T11:26:33;98648.00;;;26.20
35582;BMP180;21687;48.900;9.188;2023-05-29T11:29:06;98639.00;;;26.50
35582;BMP180;21687;48.900;9.188;2023-05-29T11:31:37;98645.00;;;26.90
35582;BMP180;21687;48.900;9.188;2023-05-29T11:34:05;98648.00;;;26.60
35582;BMP180;21687;48.900;9.188;2023-05-29T11:36:34;98644.00;;;26.90
35582;BMP180;21687;48.900;9.188;2023-05-29T11:39:01;98649.00;;;26.90
35582;BMP180;21687;48.900;9.188;2023-05-29T11:41:28;98648.00;;;26.70
35582;BMP180;21687;48.900;9.188;2023-05-29T11:44:02;98650.00;;;26.20
35582;BMP180;21687;48.900;9.188;2023-05-29T11:46:29;98651.00;;;26.10
35582;BMP180;21687;48.900;9.188;2023-05-29T11:49:01;98653.00;;;26.00
35582;BMP180;21687;48.900;9.188;2023-05-29T11:51:28;98637.00;;;25.70
35582;BMP180;21687;48.900;9.188;2023-05-29T11:53:55;98646.00;;;25.80
35582;BMP180;21687;48.900;9.188;2023-05-29T11:56:28;98648.00;;;26.00
35582;BMP180;21687;48.900;9.188;2023-05-29T11:58:57;98638.00;;;25.60
35582;BMP180;21687;48.900;9.188;2023-05-29T12:01:25;98647.00;;;25.70
35582;BMP180;21687;48.900;9.188;2023-05-29T12:03:53;98647.00;;;25.50
35582;BMP180;21687;48.900;9.188;2023-05-29T12:06:35;98638.00;;;25.60
35582;BMP180;21687;48.900;9.188;2023-05-29T12:09:04;98640.00;;;26.10
35582;BMP180;21687;48.900;9.188;2023-05-29T12:11:31;98639.00;;;25.90
35582;BMP180;21687;48.900;9.188;2023-05-29T12:13:58;98647.00;;;25.40
35582;BMP180;21687;48.900;9.188;2023-05-29T12:16:30;98628.00;;;25.30
35582;BMP180;21687;48.900;9.188;2023-05-29T12:18:59;98638.00;;;26.00
35582;BMP180;21687;48.900;9.188;2023-05-29T12:21:27;98644.00;;;25.90
35582;BMP180;21687;48.900;9.188;2023-05-29T12:23:54;98636.00;;;25.70
35582;BMP180;21687;48.900;9.188;2023-05-29T12:26:24;98637.00;;;26.00
35582;BMP180;21687;48.900;9.188;2023-05-29T12:28:52;98634.00;;;26.20
35582;BMP180;21687;48.900;9.188;2023-05-29T12:31:31;98642.00;;;25.90
35582;BMP180;21687;48.900;9.188;2023-05-29T12:34:15;98644.00;;;25.90
35582;BMP180;21687;48.900;9.188;2023-05-29T12:36:44;98642.00;;;25.90
35582;BMP180;21687;48.900;9.188;2023-05-29T12:39:10;98640.00;;;25.90
35582;BMP180;21687;48.900;9.188;2023-05-29T12:41:37;98643.00;;;26.00
35582;BMP180;21687;48.900;9.188;2023-05-29T12:44:06;98643.00;;;25.90
35582;BMP180;21687;48.900;9.188;2023-05-29T12:46:43;98652.00;;;25.60
35582;BMP180;21687;48.900;9.188;2023-05-29T12:49:16;98638.00;;;25.70
35582;BMP180;21687;48.900;9.188;2023-05-29T12:51:44;98646.00;;;25.50
35582;BMP180;21687;48.900;9.188;2023-05-29T12:54:15;98645.00;;;26.00
35582;BMP180;21687;48.900;9.188;2023-05-29T12:56:41;98630.00;;;25.70
35582;BMP180;21687;48.900;9.188;2023-05-29T12:59:08;98640.00;;;25.50
35582;BMP180;21687;48.900;9.188;2023-05-29T13:01:35;98644.00;;;26.10
35582;BMP180;21687;48.900;9.188;2023-05-29T13:04:02;98648.00;;;26.50
35582;BMP180;21687;48.900;9.188;2023-05-29T13:06:29;98637.00;;;25.80
35582;BMP180;21687;48.900;9.188;2023-05-29T13:08:56;98639.00;;;25.90
35582;BMP180;21687;48.900;9.188;2023-05-29T13:11:22;98642.00;;;25.90
35582;BMP180;21687;48.900;9.188;2023-05-29T13:13:49;98632.00;;;25.80
35582;BMP180;21687;48.900;9.188;2023-05-29T13:16:15;98648.00;;;25.80
35582;BMP180;21687;48.900;9.188;2023-05-29T13:18:44;98645.00;;;25.70
35582;BMP180;21687;48.900;9.188;2023-05-29T13:21:10;98640.00;;;25.50
35582;BMP180;21687;48.900;9.188;2023-05-29T13:23:37;98629.00;;;25.40
35582;BMP180;21687;48.900;9.188;2023-05-29T13:26:04;98635.00;;;25.60
35582;BMP180;21687;48.900;9.188;2023-05-29T13:28:31;98628.00;;;25.80
35582;BMP180;21687;48.900;9.188;2023-05-29T13:30:58;98634.00;;;26.00
35582;BMP180;21687;48.900;9.188;2023-05-29T13:33:24;98623.00;;;26.10
35582;BMP180;21687;48.900;9.188;2023-05-29T13:35:50;98626.00;;;26.20
35582;BMP180;21687;48.900;9.188;2023-05-29T13:38:17;98608.00;;;26.40
35582;BMP180;21687;48.900;9.188;2023-05-29T13:40:43;98632.00;;;26.10
35582;BMP180;21687;48.900;9.188;2023-05-29T13:43:09;98620.00;;;25.70
35582;BMP180;21687;48.900;9.188;2023-05-29T13:45:35;98624.00;;;25.60
35582;BMP180;21687;48.900;9.188;2023-05-29T13:48:02;98625.00;;;25.50
35582;BMP180;21687;48.900;9.188;2023-05-29T13:50:38;98616.00;;;25.90
35582;BMP180;21687;48.900;9.188;2023-05-29T13:53:04;98614.00;;;26.20
35582;BMP180;21687;48.900;9.188;2023-05-29T13:55:31;98612.00;;;25.90
35582;BMP180;21687;48.900;9.188;2023-05-29T13:57:57;98616.00;;;26.00
35582;BMP180;21687;48.900;9.188;2023-05-29T14:00:24;98628.00;;;25.90
35582;BMP180;21687;48.900;9.188;2023-05-29T14:02:50;98612.00;;;25.80
35582;BMP180;21687;48.900;9.188;2023-05-29T14:05:16;98609.00;;;25.50
35582;BMP180;21687;48.900;9.188;2023-05-29T14:07:42;98607.00;;;25.60
35582;BMP180;21687;48.900;9.188;2023-05-29T14:10:11;98611.00;;;25.50
35582;BMP180;21687;48.900;9.188;2023-05-29T14:12:37;98611.00;;;25.50
35582;BMP180;21687;48.900;9.188;2023-05-29T14:15:04;98611.00;;;25.80
35582;BMP180;21687;48.900;9.188;2023-05-29T14:17:30;98621.00;;;25.80
35582;BMP180;21687;48.900;9.188;2023-05-29T14:19:56;98605.00;;;25.80
35582;BMP180;21687;48.900;9.188;2023-05-29T14:22:23;98593.00;;;26.20
35582;BMP180;21687;48.900;9.188;2023-05-29T14:24:49;98594.00;;;26.30
35582;BMP180;21687;48.900;9.188;2023-05-29T14:27:15;98597.00;;;26.40
35582;BMP180;21687;48.900;9.188;2023-05-29T14:29:42;98609.00;;;26.00
35582;BMP180;21687;48.900;9.188;2023-05-29T14:32:08;98596.00;;;26.20
35582;BMP180;21687;48.900;9.188;2023-05-29T14:34:34;98588.00;;;26.30
35582;BMP180;21687;48.900;9.188;2023-05-29T14:37:00;98591.00;;;26.40
35582;BMP180;21687;48.900;9.188;2023-05-29T14:39:27;98596.00;;;26.30
35582;BMP180;21687;48.900;9.188;2023-05-29T14:41:53;98586.00;;;26.30
35582;BMP180;21687;48.900;9.188;2023-05-29T14:44:19;98593.00;;;26.20